Accueil
METAR-TAF:

METAR-TAF

Aéroports :

Aéroport de Méchria

Méchria, Algérie

latitude: 34-56N, longitude: 000-26W, altitude: 1149 m

Observation

Le bulletin a été fait il y a 37 minutes, à 08:00 UTC
Vent 14 kt de sud/sud-ouest
Température 23°C
Humidité 47%
Pression 1022 hPa
Visibilité: 7000 m
Nuages épars à une hauteur de 3000 ft
Nuages épars à une hauteur de 10000 ft

METAR: DAAY 290800Z 20014KT 7000 SCT030 SCT100 23/11 Q1022

Heure: 09:37 (08:37 UTC)

Prévision

Le bulletin a été fait il y a 3 heures et 37 minutes, à 05:00 UTC
Prévision valable du 29 à 06 UTC au 29 à 15 UTC
Vent 10 kt de sud-ouest
Visibilité: 6000 m
Nuages épars à une hauteur de 3300 ft
Temporairement
du 29 à 10 UTC au 29 à 15 UTC
Vent 20 kt de sud

TAF: DAAY 290500Z 2906/2915 22010KT 6000 SCT033 TEMPO 2910/2915 19020KT

Observations et prévisions météorologiques de plus de 4000 aéroports (messages METAR et TAF).

Les stations disponibles sont représentées par des disques jaunes et rouges sur la carte.

Passer la souris dessus pour voir le nom de la station.

Cliquer dessus pour voir les observations et prévisions météorologiques.

Pour changer de carte: cliquez sur les boutons verts avec une croix noire pour zoomer, sur le bouton vert avec un tiret pour effectuer un zoom arrière, ou sur les flèches vertes pour les cartes adjacentes.


METAR-TAF: